createdAt,value
2023-05-19T00:01:19.601Z,8.39
2023-05-19T00:03:54.343Z,8.38
2023-05-19T00:06:26.832Z,8.33
2023-05-19T00:09:04.936Z,8.25
2023-05-19T00:11:31.829Z,8.20
2023-05-19T00:14:00.173Z,8.19
2023-05-19T00:16:28.051Z,8.17
2023-05-19T00:18:54.750Z,8.15
2023-05-19T00:21:21.324Z,8.15
2023-05-19T00:23:47.890Z,8.14
2023-05-19T00:26:14.419Z,8.11
2023-05-19T00:28:41.001Z,8.05
2023-05-19T00:31:08.014Z,7.99
2023-05-19T00:33:34.605Z,7.94
2023-05-19T00:36:05.744Z,7.83
2023-05-19T00:38:33.857Z,7.84
2023-05-19T00:41:01.832Z,7.85
2023-05-19T00:43:30.083Z,7.80
2023-05-19T00:45:57.595Z,7.79
2023-05-19T00:48:25.717Z,7.74
2023-05-19T00:50:55.022Z,7.72
2023-05-19T00:53:23.333Z,7.72
2023-05-19T00:55:50.537Z,7.71
2023-05-19T00:58:17.782Z,7.65
2023-05-19T01:00:44.475Z,7.65
2023-05-19T01:03:11.784Z,7.64
2023-05-19T01:05:44.821Z,7.57
2023-05-19T01:08:11.882Z,7.53
2023-05-19T01:10:38.428Z,7.51
2023-05-19T01:13:06.132Z,7.48
2023-05-19T01:16:12.666Z,7.47
2023-05-19T01:19:01.848Z,7.47
2023-05-19T01:22:13.308Z,7.49
2023-05-19T01:24:53.461Z,7.51
2023-05-19T01:27:41.198Z,7.51
2023-05-19T01:30:27.328Z,7.48
2023-05-19T01:32:58.338Z,7.43
2023-05-19T01:35:26.205Z,7.40
2023-05-19T01:37:56.822Z,7.40
2023-05-19T01:40:24.920Z,7.34
2023-05-19T01:42:57.396Z,7.30
2023-05-19T01:45:27.982Z,7.29
2023-05-19T01:47:56.981Z,7.29
2023-05-19T01:50:23.700Z,7.27
2023-05-19T01:52:50.467Z,7.27
2023-05-19T01:55:17.172Z,7.19
2023-05-19T01:58:02.519Z,7.17
2023-05-19T02:00:38.218Z,7.15
2023-05-19T02:03:07.827Z,7.15
2023-05-19T02:05:59.284Z,7.09
2023-05-19T02:08:30.430Z,7.06
2023-05-19T02:11:09.681Z,7.06
2023-05-19T02:13:42.156Z,7.10
2023-05-19T02:16:10.868Z,7.07
2023-05-19T02:18:37.554Z,7.05
2023-05-19T02:21:04.348Z,7.03
2023-05-19T02:23:31.284Z,7.01
2023-05-19T02:25:57.842Z,6.97
2023-05-19T02:28:28.290Z,6.97
2023-05-19T02:30:54.917Z,6.90
2023-05-19T02:33:24.575Z,6.88
2023-05-19T02:35:51.326Z,6.83
2023-05-19T02:38:18.096Z,6.86
2023-05-19T02:40:44.752Z,6.82
2023-05-19T02:43:11.458Z,6.81
2023-05-19T02:45:38.050Z,6.79
2023-05-19T02:48:04.925Z,6.73
2023-05-19T02:50:31.695Z,6.72
2023-05-19T02:52:58.366Z,6.76
2023-05-19T02:55:24.940Z,6.81
2023-05-19T02:57:51.504Z,6.80
2023-05-19T03:00:18.186Z,6.79
2023-05-19T03:02:44.923Z,6.79
2023-05-19T03:05:11.719Z,6.77
2023-05-19T03:07:38.277Z,6.76
2023-05-19T03:10:06.636Z,6.70
2023-05-19T03:12:33.633Z,6.68
2023-05-19T03:15:00.742Z,6.72
2023-05-19T03:17:28.725Z,6.72
2023-05-19T03:19:56.028Z,6.72
2023-05-19T03:22:22.586Z,6.72
2023-05-19T03:24:51.081Z,6.71
2023-05-19T03:27:17.640Z,6.66
2023-05-19T03:29:44.147Z,6.57
2023-05-19T03:32:10.690Z,6.56
2023-05-19T03:34:37.197Z,6.52
2023-05-19T03:37:03.827Z,6.48
2023-05-19T03:39:30.351Z,6.42
2023-05-19T03:41:56.847Z,6.40
2023-05-19T03:44:23.426Z,6.47
2023-05-19T03:46:49.967Z,6.54
2023-05-19T03:49:16.581Z,6.52
2023-05-19T03:51:44.266Z,6.43
2023-05-19T03:54:10.810Z,6.41
2023-05-19T03:56:42.177Z,6.40
2023-05-19T03:59:10.845Z,6.50
2023-05-19T04:01:37.453Z,6.56
2023-05-19T04:04:04.179Z,6.59
2023-05-19T04:06:31.084Z,6.57
2023-05-19T04:08:57.662Z,6.56
2023-05-19T04:11:24.246Z,6.55
2023-05-19T04:13:51.046Z,6.57
2023-05-19T04:16:17.769Z,6.59
2023-05-19T04:18:46.386Z,6.62
2023-05-19T04:21:12.990Z,6.65
2023-05-19T04:23:39.550Z,6.65
2023-05-19T04:26:06.879Z,6.68
2023-05-19T04:28:36.230Z,6.77
2023-05-19T04:31:03.576Z,6.82
2023-05-19T04:33:30.166Z,6.86
2023-05-19T04:35:56.935Z,6.97
2023-05-19T04:38:23.442Z,7.13
2023-05-19T04:40:51.987Z,7.16
2023-05-19T04:43:19.344Z,7.08
2023-05-19T04:45:46.549Z,7.32
2023-05-19T04:48:14.004Z,7.38
2023-05-19T04:50:42.241Z,7.46
2023-05-19T04:53:12.007Z,7.47
2023-05-19T04:55:38.819Z,7.45
2023-05-19T04:58:05.548Z,7.48
2023-05-19T05:00:33.028Z,7.62
2023-05-19T05:02:59.700Z,7.71
2023-05-19T05:05:26.292Z,7.82
2023-05-19T05:07:54.095Z,7.91
2023-05-19T05:10:21.807Z,8.02
2023-05-19T05:12:48.796Z,8.04
2023-05-19T05:15:16.037Z,8.05
2023-05-19T05:17:43.652Z,8.18
2023-05-19T05:20:11.773Z,8.26
2023-05-19T05:22:41.102Z,8.30
2023-05-19T05:25:08.601Z,8.39
2023-05-19T05:27:35.256Z,8.42
2023-05-19T05:30:02.086Z,8.43
2023-05-19T05:32:28.946Z,8.48
2023-05-19T05:34:55.626Z,8.55
2023-05-19T05:37:22.183Z,8.46
2023-05-19T05:39:48.792Z,8.48
2023-05-19T05:42:16.143Z,8.53
2023-05-19T05:44:42.742Z,8.62
2023-05-19T05:47:09.690Z,8.68
2023-05-19T05:49:38.191Z,8.73
2023-05-19T05:52:06.926Z,8.82
2023-05-19T05:54:34.069Z,8.93
2023-05-19T05:57:02.462Z,9.02
2023-05-19T05:59:28.999Z,9.03
2023-05-19T06:01:55.739Z,9.07
2023-05-19T06:04:22.323Z,9.08
2023-05-19T06:06:48.853Z,9.16
2023-05-19T06:09:17.872Z,9.26
2023-05-19T06:11:44.440Z,9.32
2023-05-19T06:14:11.034Z,9.33
2023-05-19T06:16:37.810Z,9.44
2023-05-19T06:19:04.563Z,9.58
2023-05-19T06:21:31.481Z,9.62
2023-05-19T06:23:58.068Z,9.68
2023-05-19T06:26:24.647Z,9.74
2023-05-19T06:28:51.395Z,9.87
2023-05-19T06:31:18.069Z,9.96
2023-05-19T06:33:44.677Z,10.03
2023-05-19T06:36:12.043Z,10.12
2023-05-19T06:38:38.628Z,10.17
2023-05-19T06:41:05.110Z,10.21
2023-05-19T06:43:31.787Z,10.31
2023-05-19T06:45:58.325Z,10.39
2023-05-19T06:48:24.987Z,10.49
2023-05-19T06:50:52.127Z,10.58
2023-05-19T06:53:19.913Z,10.61
2023-05-19T06:55:58.056Z,10.70
2023-05-19T06:58:26.657Z,10.81
2023-05-19T07:00:53.352Z,10.84
2023-05-19T07:03:20.066Z,10.91
2023-05-19T07:05:46.732Z,11.02
2023-05-19T07:08:13.254Z,11.06
2023-05-19T07:10:39.833Z,11.07
2023-05-19T07:13:06.522Z,11.12
2023-05-19T07:15:33.605Z,11.17
2023-05-19T07:18:00.343Z,11.28
2023-05-19T07:20:27.014Z,11.43
2023-05-19T07:22:53.602Z,11.52
2023-05-19T07:25:20.338Z,11.61
2023-05-19T07:27:46.867Z,11.71
2023-05-19T07:30:13.925Z,11.87
2023-05-19T07:32:40.570Z,11.97
2023-05-19T07:35:07.307Z,12.06
2023-05-19T07:37:33.906Z,12.11
2023-05-19T07:40:00.468Z,12.24
2023-05-19T07:42:27.041Z,12.25
2023-05-19T07:44:53.618Z,12.26
2023-05-19T07:47:20.259Z,12.27
2023-05-19T07:49:49.123Z,12.34
2023-05-19T07:52:18.304Z,12.48
2023-05-19T07:54:45.793Z,12.60
2023-05-19T07:57:12.514Z,12.68
2023-05-19T07:59:39.009Z,12.80
2023-05-19T08:02:05.764Z,12.88
2023-05-19T08:04:32.945Z,12.91
2023-05-19T08:07:02.160Z,13.00
2023-05-19T08:09:28.814Z,13.12
2023-05-19T08:11:55.466Z,13.33
2023-05-19T08:14:22.932Z,13.53
2023-05-19T08:16:50.146Z,13.68
2023-05-19T08:19:16.776Z,13.72
2023-05-19T08:21:44.759Z,13.85
2023-05-19T08:24:11.689Z,14.06
2023-05-19T08:26:38.337Z,14.09
2023-05-19T08:29:04.893Z,14.14
2023-05-19T08:31:31.751Z,14.24
2023-05-19T08:33:58.281Z,14.29
2023-05-19T08:36:24.873Z,14.33
2023-05-19T08:38:51.587Z,14.43
2023-05-19T08:41:18.300Z,14.54
2023-05-19T08:43:45.417Z,14.56
2023-05-19T08:46:13.836Z,14.59
2023-05-19T08:48:42.944Z,14.66
2023-05-19T08:51:31.984Z,14.82
2023-05-19T08:54:09.252Z,14.92
2023-05-19T08:56:36.739Z,15.01
2023-05-19T08:59:04.138Z,15.15
2023-05-19T09:01:31.416Z,15.26
2023-05-19T09:03:58.579Z,15.31
2023-05-19T09:06:26.507Z,15.27
2023-05-19T09:08:53.257Z,15.27
2023-05-19T09:11:19.828Z,15.24
2023-05-19T09:13:46.992Z,15.15
2023-05-19T09:16:13.593Z,15.21
2023-05-19T09:18:40.966Z,15.23
2023-05-19T09:21:07.997Z,15.32
2023-05-19T09:23:34.882Z,15.32
2023-05-19T09:26:08.379Z,15.36
2023-05-19T09:28:37.801Z,15.41
2023-05-19T09:31:11.218Z,15.48
2023-05-19T09:33:39.427Z,15.46
2023-05-19T09:36:08.319Z,15.43
2023-05-19T09:38:36.258Z,15.43
2023-05-19T09:41:04.560Z,15.46
2023-05-19T09:43:33.498Z,15.50
2023-05-19T09:46:01.674Z,15.51
2023-05-19T09:48:28.366Z,15.58
2023-05-19T09:50:55.076Z,15.59
2023-05-19T09:53:22.516Z,15.61
2023-05-19T09:55:49.960Z,15.58
2023-05-19T09:58:18.969Z,15.56
2023-05-19T10:00:47.296Z,15.47
2023-05-19T10:03:14.782Z,15.38
2023-05-19T10:05:42.075Z,15.41
2023-05-19T10:08:10.549Z,15.50
2023-05-19T10:10:38.701Z,15.42
2023-05-19T10:13:06.329Z,15.33
2023-05-19T10:15:40.740Z,15.43
2023-05-19T10:18:17.697Z,15.47
2023-05-19T10:20:44.330Z,15.52
2023-05-19T10:23:10.951Z,15.60
2023-05-19T10:25:38.585Z,15.65
2023-05-19T10:28:14.878Z,15.70
2023-05-19T10:30:44.832Z,15.83
2023-05-19T10:33:15.448Z,15.80
2023-05-19T10:35:45.387Z,15.85
2023-05-19T10:38:42.830Z,15.94
2023-05-19T10:41:28.166Z,16.08
2023-05-19T10:44:02.606Z,16.20
2023-05-19T10:46:30.643Z,16.17
2023-05-19T10:48:57.495Z,16.21
2023-05-19T10:51:34.647Z,16.17
2023-05-19T10:54:10.437Z,16.25
2023-05-19T10:56:42.320Z,16.35
2023-05-19T10:59:33.237Z,16.43
2023-05-19T11:02:06.986Z,16.48
2023-05-19T11:04:51.633Z,16.50
2023-05-19T11:07:20.453Z,16.63
2023-05-19T11:09:53.498Z,16.61
2023-05-19T11:12:21.969Z,16.56
2023-05-19T11:14:48.761Z,16.70
2023-05-19T11:17:16.291Z,17.06
2023-05-19T11:19:54.577Z,17.01
2023-05-19T11:22:26.202Z,17.02
2023-05-19T11:24:55.127Z,16.94
2023-05-19T11:27:28.336Z,16.84
2023-05-19T11:29:57.211Z,16.75
2023-05-19T11:32:27.442Z,16.79
2023-05-19T11:34:55.849Z,16.69
2023-05-19T11:37:22.616Z,16.72
2023-05-19T11:39:49.951Z,16.80
2023-05-19T11:42:16.607Z,16.94
2023-05-19T11:44:46.742Z,17.11
2023-05-19T11:47:14.457Z,17.13
2023-05-19T11:49:59.924Z,17.15
2023-05-19T11:52:30.454Z,17.14
2023-05-19T11:55:01.585Z,17.12
2023-05-19T11:57:28.261Z,17.05
2023-05-19T11:59:56.794Z,16.99
2023-05-19T12:02:27.995Z,16.99
2023-05-19T12:04:54.923Z,17.01
2023-05-19T12:07:24.998Z,17.28
2023-05-19T12:09:52.944Z,17.34
2023-05-19T12:12:21.194Z,17.33
2023-05-19T12:14:52.565Z,17.27
2023-05-19T12:17:21.211Z,17.34
2023-05-19T12:19:50.114Z,17.45
2023-05-19T12:22:17.598Z,17.38
2023-05-19T12:24:46.040Z,17.41
2023-05-19T12:27:17.001Z,17.50
2023-05-19T12:29:43.666Z,17.49
2023-05-19T12:32:10.425Z,17.53
2023-05-19T12:34:38.224Z,17.51
2023-05-19T12:37:06.002Z,17.45
2023-05-19T12:39:33.791Z,17.60
2023-05-19T12:42:04.516Z,17.64
2023-05-19T12:44:33.558Z,17.73
2023-05-19T12:47:00.598Z,17.80
2023-05-19T12:49:27.174Z,17.74
2023-05-19T12:51:54.409Z,17.68
2023-05-19T12:54:22.066Z,17.66
2023-05-19T12:56:50.664Z,17.64
2023-05-19T12:59:37.370Z,17.53
2023-05-19T13:02:05.323Z,17.55
2023-05-19T13:04:32.007Z,17.63
2023-05-19T13:06:58.540Z,17.56
2023-05-19T13:09:25.158Z,17.41
2023-05-19T13:11:53.957Z,17.52
2023-05-19T13:14:20.822Z,17.51
2023-05-19T13:16:47.498Z,17.43
2023-05-19T13:21:51.176Z,17.53
2023-05-19T13:24:17.703Z,17.56
2023-05-19T13:26:45.606Z,17.53
2023-05-19T13:29:12.225Z,17.51
2023-05-19T13:31:38.986Z,17.55
2023-05-19T13:34:05.637Z,17.60
2023-05-19T13:36:33.362Z,17.73
2023-05-19T13:39:00.994Z,17.79
2023-05-19T13:41:29.585Z,17.88
2023-05-19T13:43:59.643Z,17.94
2023-05-19T13:46:40.799Z,17.98
2023-05-19T13:49:11.034Z,18.07
2023-05-19T13:51:37.663Z,17.91
2023-05-19T13:54:04.709Z,17.93
2023-05-19T13:56:31.742Z,17.90
2023-05-19T13:58:58.343Z,17.84
2023-05-19T14:01:25.435Z,17.80
2023-05-19T14:03:52.569Z,18.04
2023-05-19T14:06:19.705Z,17.93
2023-05-19T14:08:46.427Z,17.77
2023-05-19T14:11:21.852Z,17.66
2023-05-19T14:13:52.530Z,17.70
2023-05-19T14:16:20.558Z,17.83
2023-05-19T14:18:47.373Z,17.82
2023-05-19T14:21:14.966Z,17.78
2023-05-19T14:23:41.676Z,17.73
2023-05-19T14:26:08.227Z,17.65
2023-05-19T14:28:34.756Z,17.59
2023-05-19T14:31:01.489Z,17.67
2023-05-19T14:33:28.280Z,17.97
2023-05-19T14:35:56.013Z,18.18
2023-05-19T14:38:22.701Z,18.20
2023-05-19T14:40:49.257Z,18.13
2023-05-19T14:43:15.929Z,18.21
2023-05-19T14:45:42.617Z,18.22
2023-05-19T14:48:11.031Z,18.34
2023-05-19T14:50:38.428Z,18.41
2023-05-19T14:53:05.366Z,18.37
2023-05-19T14:55:32.214Z,18.36
2023-05-19T14:57:58.784Z,18.40
2023-05-19T15:00:28.211Z,18.32
2023-05-19T15:02:55.136Z,18.27
2023-05-19T15:05:24.156Z,18.24
2023-05-19T15:07:51.281Z,18.34
2023-05-19T15:10:20.506Z,18.39
2023-05-19T15:12:47.080Z,18.46
2023-05-19T15:15:15.829Z,18.41
2023-05-19T15:17:42.718Z,18.34
2023-05-19T15:20:09.620Z,18.40
2023-05-19T15:22:36.448Z,18.35
2023-05-19T15:25:03.042Z,18.25
2023-05-19T15:27:29.586Z,18.19
2023-05-19T15:29:56.276Z,18.18
2023-05-19T15:32:22.890Z,18.17
2023-05-19T15:34:49.505Z,18.27
2023-05-19T15:37:16.539Z,18.35
2023-05-19T15:39:43.111Z,18.39
2023-05-19T15:42:09.668Z,18.25
2023-05-19T15:44:36.662Z,18.38
2023-05-19T15:47:03.311Z,18.44
2023-05-19T15:49:29.914Z,18.52
2023-05-19T15:51:56.498Z,18.47
2023-05-19T15:54:23.105Z,18.47
2023-05-19T15:56:49.740Z,18.56
2023-05-19T15:59:16.331Z,18.63
2023-05-19T16:01:43.014Z,18.59
2023-05-19T16:04:09.724Z,18.50
2023-05-19T16:06:36.345Z,18.58
2023-05-19T16:09:03.109Z,18.61
2023-05-19T16:11:29.791Z,18.52
2023-05-19T16:13:56.331Z,18.41
2023-05-19T16:16:23.033Z,18.33
2023-05-19T16:18:49.728Z,18.33
2023-05-19T16:21:16.302Z,18.33
2023-05-19T16:23:42.868Z,18.41
2023-05-19T16:26:09.410Z,18.48
2023-05-19T16:28:35.987Z,18.56
2023-05-19T16:31:02.534Z,18.55
2023-05-19T16:33:30.053Z,18.57
2023-05-19T16:35:58.787Z,18.57
2023-05-19T16:38:26.681Z,18.55
2023-05-19T16:40:53.366Z,18.56
2023-05-19T16:43:19.884Z,18.62
2023-05-19T16:45:46.574Z,18.59
2023-05-19T16:48:13.198Z,18.45
2023-05-19T16:50:39.910Z,18.36
2023-05-19T16:53:06.517Z,18.30
2023-05-19T16:55:33.049Z,18.27
2023-05-19T16:57:59.710Z,18.30
2023-05-19T17:00:27.370Z,18.37
2023-05-19T17:02:54.084Z,18.42
2023-05-19T17:05:21.126Z,18.50
2023-05-19T17:07:47.669Z,18.51
2023-05-19T17:10:14.435Z,18.52
2023-05-19T17:12:41.049Z,18.49
2023-05-19T17:15:07.983Z,18.35
2023-05-19T17:17:34.547Z,18.21
2023-05-19T17:20:01.386Z,18.07
2023-05-19T17:22:29.993Z,17.96
2023-05-19T17:24:57.433Z,17.89
2023-05-19T17:27:23.948Z,17.89
2023-05-19T17:29:50.523Z,17.94
2023-05-19T17:32:17.233Z,18.04
2023-05-19T17:34:43.848Z,18.09
2023-05-19T17:37:10.629Z,18.07
2023-05-19T17:39:37.204Z,18.08
2023-05-19T17:42:03.966Z,18.07
2023-05-19T17:44:30.487Z,18.07
2023-05-19T17:46:57.063Z,18.02
2023-05-19T17:49:25.631Z,17.93
2023-05-19T17:51:52.513Z,17.84
2023-05-19T17:54:19.438Z,17.78
2023-05-19T17:56:46.464Z,17.75
2023-05-19T17:59:13.188Z,17.74
2023-05-19T18:01:40.794Z,17.70
2023-05-19T18:04:08.156Z,17.71
2023-05-19T18:06:37.568Z,17.69
2023-05-19T18:09:08.895Z,17.67
2023-05-19T18:11:36.090Z,17.61
2023-05-19T18:14:02.735Z,17.57
2023-05-19T18:16:29.541Z,17.51
2023-05-19T18:18:56.182Z,17.40
2023-05-19T18:21:24.335Z,17.31
2023-05-19T18:23:51.465Z,17.22
2023-05-19T18:26:17.997Z,17.14
2023-05-19T18:28:44.716Z,17.12
2023-05-19T18:31:17.369Z,17.02
2023-05-19T18:33:45.886Z,16.98
2023-05-19T18:36:13.642Z,16.93
2023-05-19T18:38:41.071Z,16.83
2023-05-19T18:41:08.372Z,16.75
2023-05-19T18:43:35.020Z,16.72
2023-05-19T18:46:01.601Z,16.69
2023-05-19T18:48:29.475Z,16.67
2023-05-19T18:50:57.222Z,16.57
2023-05-19T18:53:23.804Z,16.52
2023-05-19T18:55:50.357Z,16.49
2023-05-19T18:58:18.289Z,16.42
2023-05-19T19:00:44.910Z,16.40
2023-05-19T19:03:11.925Z,16.36
2023-05-19T19:05:38.655Z,16.27
2023-05-19T19:08:05.680Z,16.18
2023-05-19T19:10:34.754Z,16.13
2023-05-19T19:13:01.549Z,16.04
2023-05-19T19:15:28.353Z,15.98
2023-05-19T19:17:55.134Z,15.94
2023-05-19T19:20:21.759Z,15.88
2023-05-19T19:22:48.335Z,15.83
2023-05-19T19:25:14.950Z,15.79
2023-05-19T19:27:41.536Z,15.77
2023-05-19T19:30:08.880Z,15.72
2023-05-19T19:32:35.554Z,15.66
2023-05-19T19:35:02.209Z,15.61
2023-05-19T19:37:28.735Z,15.54
2023-05-19T19:39:55.445Z,15.50
2023-05-19T19:42:21.960Z,15.46
2023-05-19T19:44:48.542Z,15.40
2023-05-19T19:47:15.125Z,15.30
2023-05-19T19:49:42.118Z,15.28
2023-05-19T19:52:08.635Z,15.20
2023-05-19T19:54:35.166Z,15.13
2023-05-19T19:57:01.739Z,15.09
2023-05-19T19:59:28.391Z,15.03
2023-05-19T20:01:55.002Z,14.97
2023-05-19T20:04:21.620Z,14.91
2023-05-19T20:06:49.625Z,14.85
2023-05-19T20:09:16.624Z,14.77
2023-05-19T20:11:43.596Z,14.75
2023-05-19T20:14:10.120Z,14.65
2023-05-19T20:16:36.704Z,14.54
2023-05-19T20:19:03.380Z,14.48
2023-05-19T20:21:29.945Z,14.48
2023-05-19T20:23:56.468Z,14.46
2023-05-19T20:26:23.046Z,14.43
2023-05-19T20:28:49.557Z,14.39
2023-05-19T20:31:16.100Z,14.33
2023-05-19T20:33:42.737Z,14.34
2023-05-19T20:36:10.942Z,14.28
2023-05-19T20:38:37.638Z,14.24
2023-05-19T20:41:04.149Z,14.19
2023-05-19T20:43:32.042Z,14.13
2023-05-19T20:45:59.650Z,14.11
2023-05-19T20:48:26.245Z,14.05
2023-05-19T20:50:54.135Z,14.02
2023-05-19T20:53:21.542Z,14.01
2023-05-19T20:55:48.441Z,13.97
2023-05-19T20:58:15.168Z,13.97
2023-05-19T21:00:41.729Z,13.94
2023-05-19T21:03:08.911Z,13.95
2023-05-19T21:05:40.616Z,13.88
2023-05-19T21:08:12.662Z,13.86
2023-05-19T21:10:39.409Z,13.83
2023-05-19T21:13:06.022Z,13.81
2023-05-19T21:15:32.550Z,13.81
2023-05-19T21:17:59.275Z,13.72
2023-05-19T21:20:27.409Z,13.64
2023-05-19T21:22:53.913Z,13.62
2023-05-19T21:25:20.613Z,13.63
2023-05-19T21:27:47.512Z,13.61
2023-05-19T21:30:14.496Z,13.59
2023-05-19T21:32:41.240Z,13.52
2023-05-19T21:35:08.217Z,13.47
2023-05-19T21:37:34.820Z,13.49
2023-05-19T21:40:01.590Z,13.51
2023-05-19T21:42:28.120Z,13.45
2023-05-19T21:44:54.767Z,13.43
2023-05-19T21:47:24.904Z,13.39
2023-05-19T21:49:51.401Z,13.36
2023-05-19T21:52:19.005Z,13.33
2023-05-19T21:54:45.780Z,13.26
2023-05-19T21:57:12.642Z,13.23
2023-05-19T21:59:40.640Z,13.19
2023-05-19T22:02:07.482Z,13.14
2023-05-19T22:04:34.145Z,13.09
2023-05-19T22:07:01.054Z,13.13
2023-05-19T22:09:27.666Z,13.12
2023-05-19T22:11:55.654Z,13.12
2023-05-19T22:14:22.272Z,13.10
2023-05-19T22:16:49.089Z,13.02
2023-05-19T22:19:16.380Z,12.99
2023-05-19T22:21:42.993Z,12.94
2023-05-19T22:24:09.625Z,12.90
2023-05-19T22:26:36.372Z,12.91
2023-05-19T22:29:03.463Z,12.85
2023-05-19T22:31:29.971Z,12.84
2023-05-19T22:33:56.830Z,12.82
2023-05-19T22:36:23.636Z,12.74
2023-05-19T22:38:50.393Z,12.71
2023-05-19T22:41:16.904Z,12.69
2023-05-19T22:43:43.783Z,12.65
2023-05-19T22:46:10.687Z,12.61
2023-05-19T22:48:37.291Z,12.52
2023-05-19T22:51:04.396Z,12.43
2023-05-19T22:53:31.144Z,12.36
2023-05-19T22:55:57.672Z,12.33
2023-05-19T22:58:24.228Z,12.30
2023-05-19T23:00:50.860Z,12.27
2023-05-19T23:03:18.239Z,12.25
2023-05-19T23:05:44.846Z,12.23
2023-05-19T23:08:11.405Z,12.18
2023-05-19T23:10:38.267Z,12.16
2023-05-19T23:13:04.824Z,12.10
2023-05-19T23:15:31.495Z,11.98
2023-05-19T23:17:58.310Z,11.97
2023-05-19T23:20:25.032Z,11.96
2023-05-19T23:22:51.861Z,11.91
2023-05-19T23:25:18.462Z,11.85
2023-05-19T23:27:46.563Z,11.79
2023-05-19T23:30:13.247Z,11.73
2023-05-19T23:32:40.897Z,11.65
2023-05-19T23:35:18.714Z,11.61
2023-05-19T23:37:45.310Z,11.58
2023-05-19T23:40:12.456Z,11.56
2023-05-19T23:42:39.406Z,11.51
2023-05-19T23:45:06.564Z,11.50
2023-05-19T23:47:33.156Z,11.43
2023-05-19T23:49:59.798Z,11.43
2023-05-19T23:52:26.396Z,11.44
2023-05-19T23:54:52.964Z,11.45
2023-05-19T23:57:19.527Z,11.43
2023-05-19T23:59:46.133Z,11.41
